KSSC/SSC METAR and TAF weather

Enter ICAO airport designator
Station Type Date Time Source
KSSC METAR 2019/08/22 19:56 UTC NOAA

KSSC 221956Z 00000KT 10SM FEW060 SCT150 BKN180 26/22 A3001 RMK AO2A LTG DSNT E AND SW RAB1856E07DZB07E09 TSE10 SLP162 P0001 T02580221 $


Station Type Date Time Source
KSSC Decoded METAR 2019/08/22 19:56 UTC NOAA

Station name not available
Aug 22, 2019 - 03:56 PM EDT / 2019.08.22 1956 UTC
Wind: Calm:0
Visibility: 10 mile(s):0
Sky conditions: mostly cloudy
Weather: Lightning observed
Precipitation last hour: 0.01 inches
Temperature: 78.4 F (25.8 C)
Dew Point: 71.8 F (22.1 C)
Relative Humidity: 80%
Pressure (altimeter): 30.01 in. Hg (1016 hPa)
ob: KSSC 221956Z 00000KT 10SM FEW060 SCT150 BKN180 26/22 A3001 RMK AO2A LTG DSNT E AND SW RAB1856E07DZB07E09 TSE10 SLP162 P0001 T02580221
cycle: 20

Station Type Date Time Source
KSSC TAF 2019/08/22 17:45 UTC NOAA

TAF
AMD KSSC 221735Z 2217/2321 23009KT 9999 VCTS FEW040CB BKN120 QNH3002INS
TEMPO 2218/2223 25012G25KT 4800 TSRA BKN045CB BKN100
BECMG 2300/2301 20007KT 9999 NSW FEW045 SCT120 QNH2999INS
BECMG 2318/2319 21010G15KT 9999 VCTS BKN040CB BKN100 QNH2995INS TX35/2219Z TN24/2311Z

Example: see airport list